createdAt,value
2023-01-05T00:01:39.179Z,101491.28
2023-01-05T00:04:06.655Z,101489.38
2023-01-05T00:06:33.726Z,101487.97
2023-01-05T00:09:01.027Z,101487.94
2023-01-05T00:11:56.318Z,101481.31
2023-01-05T00:14:46.273Z,101486.75
2023-01-05T00:17:34.000Z,101500.00
2023-01-05T00:20:19.887Z,101493.19
2023-01-05T00:22:52.221Z,101485.13
2023-01-05T00:25:24.515Z,101485.72
2023-01-05T00:27:53.680Z,101491.22
2023-01-05T00:30:36.700Z,101500.34
2023-01-05T00:33:03.912Z,101499.44
2023-01-05T00:35:31.506Z,101493.16
2023-01-05T00:37:58.290Z,101502.03
2023-01-05T00:40:25.112Z,101498.69
2023-01-05T00:42:51.907Z,101511.09
2023-01-05T00:45:19.649Z,101496.53
2023-01-05T00:47:48.008Z,101493.78
2023-01-05T00:50:17.426Z,101503.28
2023-01-05T00:52:44.992Z,101504.19
2023-01-05T00:55:12.520Z,101489.31
2023-01-05T00:57:39.444Z,101501.81
2023-01-05T01:00:08.276Z,101494.44
2023-01-05T01:02:35.165Z,101495.53
2023-01-05T01:05:02.294Z,101494.91
2023-01-05T01:07:30.692Z,101496.00
2023-01-05T01:09:57.536Z,101499.19
2023-01-05T01:12:24.404Z,101503.63
2023-01-05T01:14:51.671Z,101501.16
2023-01-05T01:17:18.464Z,101502.97
2023-01-05T01:19:46.892Z,101504.84
2023-01-05T01:22:14.728Z,101508.41
2023-01-05T01:24:41.989Z,101497.03
2023-01-05T01:27:08.802Z,101491.66
2023-01-05T01:29:35.744Z,101513.09
2023-01-05T01:32:02.680Z,101499.50
2023-01-05T01:34:30.108Z,101512.09
2023-01-05T01:36:59.135Z,101507.91
2023-01-05T01:39:30.680Z,101510.50
2023-01-05T01:42:03.449Z,101521.94
2023-01-05T01:44:58.603Z,101519.03
2023-01-05T01:47:49.591Z,101533.47
2023-01-05T01:50:28.088Z,101539.09
2023-01-05T01:52:59.226Z,101535.19
2023-01-05T01:55:27.480Z,101540.25
2023-01-05T01:57:54.581Z,101542.56
2023-01-05T02:00:21.726Z,101540.00
2023-01-05T02:02:53.892Z,101547.88
2023-01-05T02:05:28.876Z,101537.63
2023-01-05T02:07:55.867Z,101542.16
2023-01-05T02:10:47.633Z,101540.44
2023-01-05T02:13:29.488Z,101537.03
2023-01-05T02:16:25.397Z,101541.19
2023-01-05T02:19:13.456Z,101537.47
2023-01-05T02:21:56.712Z,101547.66
2023-01-05T02:24:48.813Z,101547.50
2023-01-05T02:27:20.952Z,101555.94
2023-01-05T02:29:53.864Z,101560.03
2023-01-05T02:32:26.719Z,101557.25
2023-01-05T02:35:15.433Z,101566.75
2023-01-05T02:37:46.980Z,101555.63
2023-01-05T02:40:36.664Z,101562.16
2023-01-05T02:43:04.916Z,101552.94
2023-01-05T02:45:31.792Z,101551.41
2023-01-05T02:48:00.612Z,101546.41
2023-01-05T02:51:04.730Z,101568.16
2023-01-05T02:53:34.431Z,101563.16
2023-01-05T02:56:07.056Z,101562.94
2023-01-05T02:58:42.027Z,101574.72
2023-01-05T03:01:12.836Z,101559.75
2023-01-05T03:03:49.860Z,101565.63
2023-01-05T03:06:56.634Z,101561.00
2023-01-05T03:09:29.287Z,101560.03
2023-01-05T03:12:21.751Z,101563.91
2023-01-05T03:14:53.281Z,101568.03
2023-01-05T03:17:28.414Z,101561.22
2023-01-05T03:19:56.426Z,101565.09
2023-01-05T03:22:48.620Z,101570.59
2023-01-05T03:25:39.013Z,101571.91
2023-01-05T03:28:29.272Z,101564.22
2023-01-05T03:31:23.768Z,101560.53
2023-01-05T03:34:28.660Z,101568.59
2023-01-05T03:37:04.914Z,101576.16
2023-01-05T03:39:33.045Z,101571.16
2023-01-05T03:42:04.118Z,101566.91
2023-01-05T03:44:30.975Z,101554.34
2023-01-05T03:46:58.210Z,101556.69
2023-01-05T03:49:25.163Z,101562.56
2023-01-05T03:51:52.668Z,101569.72
2023-01-05T03:54:19.987Z,101574.47
2023-01-05T03:56:47.792Z,101588.28
2023-01-05T03:59:15.019Z,101589.88
2023-01-05T04:01:42.944Z,101583.31
2023-01-05T04:04:13.260Z,101591.84
2023-01-05T04:06:40.390Z,101580.91
2023-01-05T04:09:08.999Z,101572.25
2023-01-05T04:11:38.108Z,101576.81
2023-01-05T04:14:06.604Z,101580.53
2023-01-05T04:16:35.054Z,101581.59
2023-01-05T04:19:10.522Z,101583.38
2023-01-05T04:21:37.584Z,101594.63
2023-01-05T04:24:05.344Z,101592.09
2023-01-05T04:26:34.899Z,101595.91
2023-01-05T04:29:02.461Z,101598.44
2023-01-05T04:31:29.270Z,101605.69
2023-01-05T04:33:56.936Z,101593.31
2023-01-05T04:36:25.862Z,101607.66
2023-01-05T04:38:55.617Z,101598.94
2023-01-05T04:41:22.395Z,101601.41
2023-01-05T04:43:51.565Z,101604.25
2023-01-05T04:46:18.836Z,101596.88
2023-01-05T04:48:48.475Z,101603.53
2023-01-05T04:51:17.354Z,101602.47
2023-01-05T04:53:44.180Z,101601.16
2023-01-05T04:56:15.381Z,101605.00
2023-01-05T04:58:47.803Z,101601.28
2023-01-05T05:01:14.793Z,101605.03
2023-01-05T05:03:43.610Z,101598.19
2023-01-05T05:06:14.211Z,101594.41
2023-01-05T05:08:40.995Z,101591.00
2023-01-05T05:11:09.009Z,101595.13
2023-01-05T05:13:38.437Z,101590.63
2023-01-05T05:16:05.687Z,101598.00
2023-01-05T05:18:33.661Z,101599.75
2023-01-05T05:21:01.519Z,101595.88
2023-01-05T05:23:32.327Z,101599.06
2023-01-05T05:26:00.112Z,101597.94
2023-01-05T05:28:28.468Z,101604.88
2023-01-05T05:30:56.531Z,101611.78
2023-01-05T05:33:24.336Z,101609.00
2023-01-05T05:35:51.213Z,101612.34
2023-01-05T05:38:18.066Z,101618.78
2023-01-05T05:40:44.913Z,101628.38
2023-01-05T05:43:14.701Z,101622.28
2023-01-05T05:45:50.317Z,101632.56
2023-01-05T05:48:18.569Z,101646.69
2023-01-05T05:50:45.688Z,101647.03
2023-01-05T05:53:12.449Z,101644.94
2023-01-05T05:55:39.260Z,101654.59
2023-01-05T05:58:06.009Z,101658.75
2023-01-05T06:00:32.875Z,101657.88
2023-01-05T06:02:59.768Z,101661.00
2023-01-05T06:05:26.644Z,101676.72
2023-01-05T06:07:53.365Z,101675.59
2023-01-05T06:10:20.143Z,101675.66
2023-01-05T06:12:46.879Z,101676.16
2023-01-05T06:15:17.140Z,101677.03
2023-01-05T06:17:45.984Z,101682.34
2023-01-05T06:20:12.750Z,101674.94
2023-01-05T06:22:42.284Z,101679.28
2023-01-05T06:25:09.733Z,101682.63
2023-01-05T06:27:36.657Z,101680.91
2023-01-05T06:30:04.699Z,101688.28
2023-01-05T06:32:31.538Z,101697.56
2023-01-05T06:34:58.299Z,101683.47
2023-01-05T06:37:25.122Z,101690.75
2023-01-05T06:39:52.393Z,101691.78
2023-01-05T06:42:23.413Z,101694.78
2023-01-05T06:44:50.816Z,101681.84
2023-01-05T06:47:18.027Z,101687.41
2023-01-05T06:49:44.852Z,101701.41
2023-01-05T06:52:16.235Z,101700.78
2023-01-05T06:54:43.941Z,101699.38
2023-01-05T06:57:11.527Z,101717.63
2023-01-05T06:59:38.709Z,101715.06
2023-01-05T07:02:05.869Z,101715.13
2023-01-05T07:04:32.856Z,101717.81
2023-01-05T07:06:59.806Z,101708.53
2023-01-05T07:09:26.616Z,101715.03
2023-01-05T07:11:53.497Z,101712.63
2023-01-05T07:14:20.611Z,101722.72
2023-01-05T07:16:49.314Z,101739.19
2023-01-05T07:24:40.846Z,101723.19
2023-01-05T07:29:50.476Z,101725.19
2023-01-05T07:35:48.992Z,101744.47
2023-01-05T07:38:22.341Z,101738.06
2023-01-05T07:46:36.705Z,101764.50
2023-01-05T07:49:04.717Z,101761.03
2023-01-05T07:51:32.418Z,101761.69
2023-01-05T07:54:01.882Z,101769.31
2023-01-05T07:56:29.236Z,101770.84
2023-01-05T07:58:56.354Z,101776.41
2023-01-05T08:01:23.420Z,101785.63
2023-01-05T08:03:50.300Z,101772.94
2023-01-05T08:06:19.804Z,101786.31
2023-01-05T08:08:47.460Z,101785.94
2023-01-05T08:11:16.335Z,101792.81
2023-01-05T08:14:01.062Z,101796.44
2023-01-05T08:16:31.578Z,101790.69
2023-01-05T08:18:59.480Z,101799.13
2023-01-05T08:21:26.549Z,101795.31
2023-01-05T08:23:53.384Z,101793.00
2023-01-05T08:26:22.585Z,101788.75
2023-01-05T08:28:50.105Z,101800.31
2023-01-05T08:31:28.976Z,101791.44
2023-01-05T08:33:57.997Z,101804.38
2023-01-05T08:36:25.037Z,101790.47
2023-01-05T08:38:55.334Z,101793.28
2023-01-05T08:41:28.134Z,101789.47
2023-01-05T08:43:56.886Z,101791.66
2023-01-05T08:46:29.590Z,101796.00
2023-01-05T08:49:01.102Z,101794.09
2023-01-05T08:51:38.978Z,101804.16
2023-01-05T08:54:08.161Z,101786.25
2023-01-05T08:56:39.087Z,101794.22
2023-01-05T08:59:06.782Z,101813.69
2023-01-05T09:01:34.285Z,101820.66
2023-01-05T09:04:01.519Z,101824.69
2023-01-05T09:06:28.263Z,101823.34
2023-01-05T09:08:55.193Z,101821.56
2023-01-05T09:11:23.995Z,101826.41
2023-01-05T09:13:53.968Z,101831.38
2023-01-05T09:19:10.697Z,101828.63
2023-01-05T09:21:45.562Z,101820.34
2023-01-05T09:24:14.726Z,101821.25
2023-01-05T09:26:42.543Z,101825.78
2023-01-05T09:29:10.641Z,101829.91
2023-01-05T09:31:37.818Z,101826.78
2023-01-05T09:34:06.686Z,101822.28
2023-01-05T09:36:37.252Z,101829.13
2023-01-05T09:39:06.195Z,101834.56
2023-01-05T09:41:37.383Z,101843.41
2023-01-05T09:44:14.735Z,101839.66
2023-01-05T09:46:45.980Z,101843.81
2023-01-05T09:49:18.528Z,101850.16
2023-01-05T09:51:45.388Z,101852.56
2023-01-05T09:54:17.817Z,101845.53
2023-01-05T09:59:38.955Z,101839.25
2023-01-05T10:02:39.463Z,101848.44
2023-01-05T10:05:07.774Z,101858.91
2023-01-05T10:07:43.400Z,101855.56
2023-01-05T10:10:32.377Z,101857.31
2023-01-05T10:13:03.450Z,101856.38
2023-01-05T10:15:34.982Z,101857.59
2023-01-05T10:18:19.690Z,101848.09
2023-01-05T10:21:05.455Z,101861.53
2023-01-05T10:24:00.074Z,101862.94
2023-01-05T10:27:23.718Z,101859.41
2023-01-05T10:29:44.794Z,101853.88
2023-01-05T10:32:20.709Z,101852.94
2023-01-05T10:35:02.822Z,101864.94
2023-01-05T10:37:42.081Z,101863.69
2023-01-05T10:40:08.932Z,101853.84
2023-01-05T10:43:16.735Z,101863.44
2023-01-05T10:46:19.743Z,101859.19
2023-01-05T10:48:41.445Z,101853.94
2023-01-05T10:51:09.512Z,101860.47
2023-01-05T10:53:38.700Z,101848.75
2023-01-05T10:56:07.073Z,101868.88
2023-01-05T10:58:36.413Z,101870.44
2023-01-05T11:01:19.715Z,101867.19
2023-01-05T11:06:36.148Z,101866.16
2023-01-05T11:09:22.387Z,101864.88
2023-01-05T11:12:00.501Z,101869.56
2023-01-05T11:14:30.312Z,101846.31
2023-01-05T11:17:04.526Z,101866.88
2023-01-05T11:19:35.412Z,101861.81
2023-01-05T11:22:02.925Z,101847.41
2023-01-05T11:24:34.775Z,101851.75
2023-01-05T11:27:24.585Z,101836.13
2023-01-05T11:30:16.220Z,101841.09
2023-01-05T11:32:43.718Z,101835.94
2023-01-05T11:35:32.057Z,101833.00
2023-01-05T11:38:00.574Z,101832.72
2023-01-05T11:40:34.913Z,101835.97
2023-01-05T11:43:10.367Z,101850.53
2023-01-05T11:45:45.271Z,101842.69
2023-01-05T11:48:18.500Z,101846.50
2023-01-05T11:50:50.749Z,101846.44
2023-01-05T11:53:25.061Z,101841.84
2023-01-05T11:56:03.871Z,101837.50
2023-01-05T11:58:42.836Z,101844.88
2023-01-05T12:01:37.727Z,101841.41
2023-01-05T12:04:23.793Z,101842.78
2023-01-05T12:07:03.076Z,101841.53
2023-01-05T12:09:53.753Z,101828.63
2023-01-05T12:12:46.195Z,101822.56
2023-01-05T12:15:43.907Z,101816.41
2023-01-05T12:18:19.904Z,101816.03
2023-01-05T12:21:12.750Z,101825.06
2023-01-05T12:23:52.160Z,101817.44
2023-01-05T12:26:26.219Z,101817.03
2023-01-05T12:30:43.412Z,101821.97
2023-01-05T12:35:12.455Z,101817.25
2023-01-05T12:38:05.602Z,101821.53
2023-01-05T12:40:43.941Z,101814.19
2023-01-05T12:43:17.552Z,101814.59
2023-01-05T12:46:38.837Z,101804.72
2023-01-05T12:49:14.867Z,101808.78
2023-01-05T12:51:46.919Z,101809.22
2023-01-05T12:54:54.176Z,101815.69
2023-01-05T12:57:32.773Z,101801.44
2023-01-05T13:00:06.208Z,101807.38
2023-01-05T13:02:36.750Z,101804.03
2023-01-05T13:05:20.140Z,101794.06
2023-01-05T13:07:54.328Z,101792.53
2023-01-05T13:10:28.033Z,101790.41
2023-01-05T13:13:00.660Z,101782.88
2023-01-05T13:15:37.533Z,101786.88
2023-01-05T13:18:07.640Z,101782.22
2023-01-05T13:20:43.281Z,101773.59
2023-01-05T13:23:27.727Z,101784.28
2023-01-05T13:26:01.889Z,101773.72
2023-01-05T13:28:31.264Z,101787.28
2023-01-05T13:31:32.587Z,101777.50
2023-01-05T13:34:21.695Z,101768.44
2023-01-05T13:37:01.355Z,101772.75
2023-01-05T13:40:03.076Z,101765.78
2023-01-05T13:43:10.589Z,101765.84
2023-01-05T13:45:56.006Z,101772.28
2023-01-05T13:48:57.540Z,101767.22
2023-01-05T13:51:54.631Z,101765.53
2023-01-05T13:54:49.215Z,101763.75
2023-01-05T13:57:31.509Z,101773.03
2023-01-05T14:00:07.310Z,101760.16
2023-01-05T14:02:43.141Z,101759.69
2023-01-05T14:05:24.868Z,101761.44
2023-01-05T14:07:53.948Z,101746.75
2023-01-05T14:10:26.474Z,101737.03
2023-01-05T14:12:56.652Z,101753.31
2023-01-05T14:15:43.514Z,101758.47
2023-01-05T14:18:52.518Z,101749.88
2023-01-05T14:21:50.496Z,101749.00
2023-01-05T14:24:28.643Z,101749.97
2023-01-05T14:27:04.542Z,101741.66
2023-01-05T14:29:59.715Z,101752.69
2023-01-05T14:32:36.695Z,101760.97
2023-01-05T14:35:42.528Z,101755.25
2023-01-05T14:38:15.147Z,101740.91
2023-01-05T14:40:45.228Z,101740.84
2023-01-05T14:43:21.797Z,101746.22
2023-01-05T14:46:06.146Z,101745.19
2023-01-05T14:48:47.968Z,101729.28
2023-01-05T14:51:24.089Z,101740.44
2023-01-05T14:53:56.226Z,101743.53
2023-01-05T14:56:26.513Z,101731.06
2023-01-05T14:59:14.121Z,101744.81
2023-01-05T15:01:44.079Z,101756.69
2023-01-05T15:04:28.033Z,101749.47
2023-01-05T15:07:09.921Z,101744.59
2023-01-05T15:10:12.846Z,101746.81
2023-01-05T15:13:13.136Z,101742.59
2023-01-05T15:15:47.307Z,101741.63
2023-01-05T15:21:15.304Z,101745.44
2023-01-05T15:24:09.229Z,101739.97
2023-01-05T15:26:54.826Z,101745.47
2023-01-05T15:29:40.005Z,101742.06
2023-01-05T15:32:26.885Z,101727.81
2023-01-05T15:35:19.474Z,101739.75
2023-01-05T15:37:52.317Z,101733.72
2023-01-05T15:40:22.417Z,101745.81
2023-01-05T15:43:06.078Z,101731.91
2023-01-05T15:45:35.840Z,101732.91
2023-01-05T15:48:09.501Z,101730.13
2023-01-05T15:50:47.751Z,101721.13
2023-01-05T15:53:23.883Z,101730.97
2023-01-05T15:55:53.619Z,101719.00
2023-01-05T15:58:22.593Z,101713.53
2023-01-05T16:01:11.659Z,101722.88
2023-01-05T16:03:40.099Z,101723.16
2023-01-05T16:06:08.944Z,101721.84
2023-01-05T16:08:43.159Z,101728.53
2023-01-05T16:11:13.281Z,101725.72
2023-01-05T16:14:22.236Z,101726.13
2023-01-05T16:17:22.484Z,101723.28
2023-01-05T16:19:54.041Z,101710.91
2023-01-05T16:22:27.040Z,101715.75
2023-01-05T16:25:03.359Z,101707.69
2023-01-05T16:27:30.567Z,101711.06
2023-01-05T16:30:28.552Z,101715.03
2023-01-05T16:33:03.355Z,101702.72
2023-01-05T16:35:33.829Z,101706.06
2023-01-05T16:38:10.140Z,101710.47
2023-01-05T16:40:46.627Z,101706.25
2023-01-05T16:43:25.455Z,101706.69
2023-01-05T16:46:01.127Z,101705.19
2023-01-05T16:48:40.832Z,101699.94
2023-01-05T16:51:18.055Z,101690.88
2023-01-05T16:54:08.721Z,101705.47
2023-01-05T16:56:35.765Z,101696.97
2023-01-05T16:59:40.414Z,101698.09
2023-01-05T17:02:32.380Z,101704.41
2023-01-05T17:04:59.252Z,101704.34
2023-01-05T17:07:26.293Z,101689.06
2023-01-05T17:09:53.458Z,101683.81
2023-01-05T17:12:20.291Z,101686.84
2023-01-05T17:14:47.379Z,101691.97
2023-01-05T17:17:14.606Z,101678.75
2023-01-05T17:19:41.461Z,101691.94
2023-01-05T17:22:11.558Z,101687.09
2023-01-05T17:24:39.883Z,101699.03
2023-01-05T17:27:06.779Z,101693.00
2023-01-05T17:29:36.599Z,101689.13
2023-01-05T17:32:03.750Z,101684.56
2023-01-05T17:34:30.826Z,101688.50
2023-01-05T17:37:00.125Z,101681.59
2023-01-05T17:39:27.051Z,101682.31
2023-01-05T17:42:13.985Z,101686.09
2023-01-05T17:44:41.557Z,101678.94
2023-01-05T17:47:08.260Z,101676.06
2023-01-05T17:49:35.157Z,101680.59
2023-01-05T17:54:29.102Z,101667.38
2023-01-05T17:56:55.931Z,101671.19
2023-01-05T17:59:23.233Z,101679.03
2023-01-05T18:01:51.441Z,101683.00
2023-01-05T18:04:18.254Z,101671.44
2023-01-05T18:06:45.082Z,101668.63
2023-01-05T18:09:11.964Z,101669.41
2023-01-05T18:11:38.851Z,101666.16
2023-01-05T18:16:32.505Z,101669.47
2023-01-05T18:18:59.416Z,101665.47
2023-01-05T18:21:26.711Z,101657.97
2023-01-05T18:23:53.533Z,101660.81
2023-01-05T18:26:20.734Z,101652.06
2023-01-05T18:28:47.894Z,101653.91
2023-01-05T18:31:16.235Z,101653.13
2023-01-05T18:33:43.812Z,101658.81
2023-01-05T18:36:15.705Z,101661.50
2023-01-05T18:38:43.232Z,101652.41
2023-01-05T18:41:10.856Z,101662.63
2023-01-05T18:43:38.061Z,101660.09
2023-01-05T18:46:05.377Z,101656.84
2023-01-05T18:48:32.851Z,101661.94
2023-01-05T18:51:00.145Z,101671.22
2023-01-05T18:53:27.198Z,101666.09
2023-01-05T18:55:54.714Z,101656.06
2023-01-05T18:58:21.907Z,101656.72
2023-01-05T19:00:48.850Z,101643.56
2023-01-05T19:03:15.957Z,101648.66
2023-01-05T19:05:44.575Z,101653.47
2023-01-05T19:08:12.905Z,101660.59
2023-01-05T19:10:40.104Z,101657.03
2023-01-05T19:13:07.332Z,101661.75
2023-01-05T19:15:35.660Z,101661.94
2023-01-05T19:18:02.601Z,101658.47
2023-01-05T19:20:29.615Z,101667.59
2023-01-05T19:22:56.486Z,101659.53
2023-01-05T19:25:23.305Z,101661.84
2023-01-05T19:27:50.136Z,101659.06
2023-01-05T19:30:19.963Z,101663.13
2023-01-05T19:32:46.821Z,101660.69
2023-01-05T19:35:15.031Z,101661.38
2023-01-05T19:37:42.673Z,101667.53
2023-01-05T19:40:10.998Z,101659.38
2023-01-05T19:42:39.085Z,101660.47
2023-01-05T19:45:06.727Z,101657.28
2023-01-05T19:47:36.556Z,101658.09
2023-01-05T19:50:03.476Z,101663.53
2023-01-05T19:52:30.818Z,101664.66
2023-01-05T19:54:57.713Z,101658.66
2023-01-05T19:57:25.292Z,101657.03
2023-01-05T19:59:52.076Z,101644.69
2023-01-05T20:02:19.054Z,101649.25
2023-01-05T20:04:47.146Z,101655.06
2023-01-05T20:07:14.395Z,101651.91
2023-01-05T20:09:41.550Z,101654.81
2023-01-05T20:12:14.867Z,101650.28
2023-01-05T20:14:42.825Z,101650.19
2023-01-05T20:17:10.965Z,101643.25
2023-01-05T20:19:39.320Z,101648.50
2023-01-05T20:22:32.115Z,101648.94
2023-01-05T20:25:05.121Z,101638.25
2023-01-05T20:27:32.425Z,101634.97
2023-01-05T20:29:59.384Z,101643.47
2023-01-05T20:32:27.319Z,101640.50
2023-01-05T20:35:02.532Z,101640.81
2023-01-05T20:37:31.486Z,101649.25
2023-01-05T20:40:00.159Z,101658.72
2023-01-05T20:42:27.999Z,101653.38
2023-01-05T20:44:54.774Z,101657.47
2023-01-05T20:47:22.675Z,101653.84
2023-01-05T20:49:49.848Z,101655.78
2023-01-05T20:52:17.858Z,101652.41
2023-01-05T20:54:45.099Z,101657.34
2023-01-05T20:57:12.465Z,101658.22
2023-01-05T20:59:40.884Z,101654.63
2023-01-05T21:02:22.548Z,101653.31
2023-01-05T21:04:50.678Z,101658.25
2023-01-05T21:07:17.673Z,101662.50
2023-01-05T21:09:44.485Z,101657.69
2023-01-05T21:12:11.592Z,101652.22
2023-01-05T21:14:38.807Z,101645.75
2023-01-05T21:17:05.608Z,101645.66
2023-01-05T21:19:32.394Z,101643.63
2023-01-05T21:21:59.495Z,101645.84
2023-01-05T21:24:27.211Z,101649.53
2023-01-05T21:26:55.080Z,101641.38
2023-01-05T21:29:26.150Z,101641.03
2023-01-05T21:31:58.963Z,101634.91
2023-01-05T21:34:26.628Z,101637.72
2023-01-05T21:36:54.248Z,101639.22
2023-01-05T21:39:23.407Z,101634.59
2023-01-05T21:42:10.390Z,101643.06
2023-01-05T21:44:37.865Z,101649.56
2023-01-05T21:47:06.571Z,101643.13
2023-01-05T21:49:34.748Z,101639.56
2023-01-05T21:52:20.301Z,101640.19
2023-01-05T21:55:05.844Z,101637.34
2023-01-05T21:57:32.733Z,101644.00
2023-01-05T21:59:59.538Z,101634.28
2023-01-05T22:02:26.449Z,101632.88
2023-01-05T22:04:53.296Z,101626.66
2023-01-05T22:07:20.203Z,101631.56
2023-01-05T22:09:47.516Z,101625.66
2023-01-05T22:12:14.442Z,101618.69
2023-01-05T22:14:41.490Z,101611.34
2023-01-05T22:17:09.409Z,101616.53
2023-01-05T22:19:36.811Z,101617.44
2023-01-05T22:22:04.109Z,101608.97
2023-01-05T22:24:31.139Z,101618.31
2023-01-05T22:26:57.979Z,101620.09
2023-01-05T22:29:24.849Z,101605.66
2023-01-05T22:31:51.832Z,101606.41
2023-01-05T22:34:18.859Z,101609.75
2023-01-05T22:36:45.870Z,101608.03
2023-01-05T22:39:12.803Z,101601.53
2023-01-05T22:41:39.627Z,101601.25
2023-01-05T22:44:06.842Z,101586.09
2023-01-05T22:46:34.036Z,101601.31
2023-01-05T22:49:01.133Z,101595.59
2023-01-05T22:51:30.855Z,101596.34
2023-01-05T22:53:58.427Z,101597.13
2023-01-05T22:56:27.175Z,101599.94
2023-01-05T22:59:02.074Z,101596.22
2023-01-05T23:01:38.874Z,101591.84
2023-01-05T23:04:09.940Z,101601.47
2023-01-05T23:06:37.217Z,101592.28
2023-01-05T23:09:06.198Z,101600.88
2023-01-05T23:11:35.919Z,101592.56
2023-01-05T23:14:04.521Z,101599.28
2023-01-05T23:16:36.588Z,101601.97
2023-01-05T23:19:04.800Z,101605.63
2023-01-05T23:21:32.053Z,101605.97
2023-01-05T23:23:59.383Z,101611.22
2023-01-05T23:26:30.848Z,101607.50
2023-01-05T23:28:58.002Z,101594.84
2023-01-05T23:31:24.923Z,101594.81
2023-01-05T23:33:52.069Z,101595.16
2023-01-05T23:36:25.395Z,101588.19
2023-01-05T23:38:52.448Z,101580.06
2023-01-05T23:41:19.820Z,101584.03
2023-01-05T23:43:47.210Z,101585.97
2023-01-05T23:46:16.809Z,101581.25
2023-01-05T23:48:44.294Z,101577.22
2023-01-05T23:51:14.155Z,101584.66
2023-01-05T23:53:47.148Z,101573.06
2023-01-05T23:56:18.825Z,101571.00
2023-01-05T23:58:46.021Z,101562.41
